createdAt,value
2019-01-23T00:02:04.081Z,-0.50
2019-01-23T00:04:35.259Z,-0.50
2019-01-23T00:07:06.177Z,-0.50
2019-01-23T00:09:37.265Z,-0.50
2019-01-23T00:12:08.333Z,-0.50
2019-01-23T00:14:39.189Z,-0.50
2019-01-23T00:17:10.335Z,-0.50
2019-01-23T00:19:41.527Z,-0.60
2019-01-23T00:22:15.116Z,-0.50
2019-01-23T00:24:45.813Z,-0.60
2019-01-23T00:27:16.557Z,-0.60
2019-01-23T00:29:47.357Z,-0.60
2019-01-23T00:32:19.324Z,-0.50
2019-01-23T00:34:50.028Z,-0.60
2019-01-23T00:37:21.016Z,-0.60
2019-01-23T00:39:51.867Z,-0.60
2019-01-23T00:42:22.999Z,-0.60
2019-01-23T00:44:54.059Z,-0.60
2019-01-23T00:47:25.017Z,-0.50
2019-01-23T00:49:58.022Z,-0.50
2019-01-23T00:52:29.196Z,-0.50
2019-01-23T00:55:00.416Z,-0.60
2019-01-23T00:57:31.649Z,-0.60
2019-01-23T01:00:02.546Z,-0.60
2019-01-23T01:02:34.912Z,-0.60
2019-01-23T01:05:06.349Z,-0.60
2019-01-23T01:07:36.976Z,-0.60
2019-01-23T01:10:10.500Z,-0.60
2019-01-23T01:12:41.917Z,-0.60
2019-01-23T01:15:13.520Z,-0.60
2019-01-23T01:17:45.414Z,-0.60
2019-01-23T01:20:16.495Z,-0.60
2019-01-23T01:22:47.656Z,-0.60
2019-01-23T01:25:18.992Z,-0.60
2019-01-23T01:27:49.642Z,-0.60
2019-01-23T01:30:22.494Z,-0.60
2019-01-23T01:32:53.874Z,-0.50
2019-01-23T01:35:24.712Z,-0.50
2019-01-23T01:37:55.688Z,-0.50
2019-01-23T01:40:26.992Z,-0.50
2019-01-23T01:42:58.369Z,-0.50
2019-01-23T01:45:29.206Z,-0.50
2019-01-23T01:48:00.472Z,-0.50
2019-01-23T01:50:31.649Z,-0.50
2019-01-23T01:53:02.645Z,-0.60
2019-01-23T01:55:34.006Z,-0.50
2019-01-23T01:58:05.191Z,-0.50
2019-01-23T02:00:36.503Z,-0.50
2019-01-23T02:03:07.377Z,-0.50
2019-01-23T02:05:38.053Z,-0.50
2019-01-23T02:08:08.925Z,-0.50
2019-01-23T02:10:39.996Z,-0.50
2019-01-23T02:13:11.140Z,-0.50
2019-01-23T02:15:42.280Z,-0.50
2019-01-23T02:18:13.293Z,-0.50
2019-01-23T02:20:44.042Z,-0.50
2019-01-23T02:23:15.108Z,-0.60
2019-01-23T02:25:45.950Z,-0.60
2019-01-23T02:28:16.782Z,-0.60
2019-01-23T02:30:47.678Z,-0.60
2019-01-23T02:33:19.073Z,-0.60
2019-01-23T02:35:49.875Z,-0.60
2019-01-23T02:38:21.615Z,-0.60
2019-01-23T02:40:52.498Z,-0.60
2019-01-23T02:43:23.134Z,-0.60
2019-01-23T02:45:54.508Z,-0.60
2019-01-23T02:48:25.118Z,-0.60
2019-01-23T02:50:56.293Z,-0.60
2019-01-23T02:53:27.128Z,-0.70
2019-01-23T02:55:58.304Z,-0.70
2019-01-23T02:58:30.857Z,-0.70
2019-01-23T03:01:01.929Z,-0.70
2019-01-23T03:03:32.699Z,-0.70
2019-01-23T03:06:04.103Z,-0.70
2019-01-23T03:08:35.401Z,-0.70
2019-01-23T03:11:06.261Z,-0.70
2019-01-23T03:13:37.006Z,-0.70
2019-01-23T03:16:07.792Z,-0.70
2019-01-23T03:18:38.729Z,-0.70
2019-01-23T03:21:09.590Z,-0.70
2019-01-23T03:23:40.599Z,-0.70
2019-01-23T03:26:11.603Z,-0.70
2019-01-23T03:28:42.833Z,-0.70
2019-01-23T03:31:13.862Z,-0.80
2019-01-23T03:33:45.414Z,-0.80
2019-01-23T03:36:16.975Z,-0.80
2019-01-23T03:38:50.676Z,-0.80
2019-01-23T03:41:25.539Z,-0.80
2019-01-23T03:43:56.383Z,-0.80
2019-01-23T03:46:28.486Z,-0.80
2019-01-23T03:48:59.658Z,-0.80
2019-01-23T03:51:30.599Z,-0.70
2019-01-23T03:54:01.988Z,-0.70
2019-01-23T03:56:33.358Z,-0.80
2019-01-23T03:59:04.541Z,-0.80
2019-01-23T04:01:35.329Z,-0.80
2019-01-23T04:04:09.496Z,-0.70
2019-01-23T04:06:40.392Z,-0.70
2019-01-23T04:09:11.939Z,-0.70
2019-01-23T04:11:43.177Z,-0.70
2019-01-23T04:14:14.382Z,-0.70
2019-01-23T04:16:46.118Z,-0.70
2019-01-23T04:19:17.224Z,-0.70
2019-01-23T04:21:49.982Z,-0.70
2019-01-23T04:24:21.105Z,-0.80
2019-01-23T04:26:52.340Z,-0.80
2019-01-23T04:29:27.112Z,-0.80
2019-01-23T04:32:00.419Z,-0.80
2019-01-23T04:34:35.033Z,-0.80
2019-01-23T04:37:06.443Z,-0.90
2019-01-23T04:39:48.026Z,-0.90
2019-01-23T04:42:23.623Z,-0.90
2019-01-23T04:44:58.092Z,-0.90
2019-01-23T04:47:30.873Z,-0.90
2019-01-23T04:50:02.484Z,-0.90
2019-01-23T04:53:08.354Z,-1.00
2019-01-23T04:55:42.194Z,-1.00
2019-01-23T04:58:15.685Z,-1.00
2019-01-23T05:00:47.409Z,-1.10
2019-01-23T05:03:19.171Z,-1.10
2019-01-23T05:05:50.115Z,-1.10
2019-01-23T05:08:21.107Z,-1.10
2019-01-23T05:10:52.393Z,-1.20
2019-01-23T05:13:23.739Z,-1.20
2019-01-23T05:15:54.753Z,-1.30
2019-01-23T05:18:29.113Z,-1.30
2019-01-23T05:21:00.703Z,-1.30
2019-01-23T05:23:32.296Z,-1.30
2019-01-23T05:26:16.977Z,-1.40
2019-01-23T05:28:58.671Z,-1.40
2019-01-23T05:31:30.111Z,-1.40
2019-01-23T05:34:27.790Z,-1.40
2019-01-23T05:37:00.453Z,-1.40
2019-01-23T05:39:51.252Z,-1.40
2019-01-23T05:42:15.921Z,-1.40
2019-01-23T05:44:49.139Z,-1.40
2019-01-23T05:47:27.066Z,-1.50
2019-01-23T05:50:00.028Z,-1.50
2019-01-23T05:52:31.994Z,-1.50
2019-01-23T05:55:03.080Z,-1.60
2019-01-23T05:57:40.307Z,-1.50
2019-01-23T06:00:14.713Z,-1.60
2019-01-23T06:02:45.945Z,-1.60
2019-01-23T06:05:17.161Z,-1.60
2019-01-23T06:07:48.499Z,-1.60
2019-01-23T06:10:19.528Z,-1.60
2019-01-23T06:12:51.281Z,-1.70
2019-01-23T06:15:22.326Z,-1.70
2019-01-23T06:17:53.474Z,-1.60
2019-01-23T06:20:24.848Z,-1.70
2019-01-23T06:22:56.432Z,-1.70
2019-01-23T06:25:29.894Z,-1.70
2019-01-23T06:28:00.786Z,-1.70
2019-01-23T06:30:34.803Z,-1.70
2019-01-23T06:33:06.073Z,-1.70
2019-01-23T06:35:46.012Z,-1.70
2019-01-23T06:38:16.869Z,-1.70
2019-01-23T06:40:48.103Z,-1.70
2019-01-23T06:43:18.756Z,-1.70
2019-01-23T06:46:01.577Z,-1.70
2019-01-23T06:48:32.892Z,-1.70
2019-01-23T06:51:22.452Z,-1.70
2019-01-23T06:53:53.301Z,-1.70
2019-01-23T06:56:24.577Z,-1.70
2019-01-23T06:58:55.738Z,-1.70
2019-01-23T07:01:26.868Z,-1.70
2019-01-23T07:03:57.840Z,-1.80
2019-01-23T07:06:31.249Z,-1.80
2019-01-23T07:09:03.188Z,-1.70
2019-01-23T07:11:34.910Z,-1.80
2019-01-23T07:14:06.593Z,-1.80
2019-01-23T07:16:37.482Z,-1.80
2019-01-23T07:19:08.843Z,-1.80
2019-01-23T07:21:42.754Z,-1.90
2019-01-23T07:24:13.795Z,-1.80
2019-01-23T07:26:44.908Z,-1.80
2019-01-23T07:29:16.235Z,-1.80
2019-01-23T07:31:47.817Z,-1.80
2019-01-23T07:34:19.057Z,-1.80
2019-01-23T07:36:49.937Z,-1.90
2019-01-23T07:39:20.981Z,-1.90
2019-01-23T07:41:52.003Z,-1.90
2019-01-23T07:44:23.185Z,-1.90
2019-01-23T07:46:54.224Z,-1.80
2019-01-23T07:49:25.225Z,-1.90
2019-01-23T07:51:56.362Z,-1.80
2019-01-23T07:54:27.092Z,-1.80
2019-01-23T07:56:58.370Z,-1.80
2019-01-23T07:59:29.128Z,-1.80
2019-01-23T08:01:59.905Z,-1.80
2019-01-23T08:04:31.371Z,-1.80
2019-01-23T08:07:02.189Z,-1.70
2019-01-23T08:09:33.464Z,-1.70
2019-01-23T08:12:10.547Z,-1.70
2019-01-23T08:14:37.377Z,-1.70
2019-01-23T08:17:08.261Z,-1.70
2019-01-23T08:19:40.108Z,-1.70
2019-01-23T08:22:11.740Z,-1.60
2019-01-23T08:24:46.015Z,-1.60
2019-01-23T08:27:17.350Z,-1.60
2019-01-23T08:29:48.514Z,-1.60
2019-01-23T08:32:19.935Z,-1.50
2019-01-23T08:34:57.628Z,-1.50
2019-01-23T08:37:29.933Z,-1.50
2019-01-23T08:40:01.103Z,-1.50
2019-01-23T08:42:34.304Z,-1.40
2019-01-23T08:45:07.423Z,-1.40
2019-01-23T08:47:39.232Z,-1.40
2019-01-23T08:50:31.924Z,-1.40
2019-01-23T08:53:05.502Z,-1.30
2019-01-23T08:55:40.875Z,-1.30
2019-01-23T08:58:14.651Z,-1.20
2019-01-23T09:00:46.292Z,-1.20
2019-01-23T09:03:24.477Z,-1.20
2019-01-23T09:06:00.229Z,-1.10
2019-01-23T09:08:37.614Z,-1.10
2019-01-23T09:11:17.825Z,-1.00
2019-01-23T09:13:58.521Z,-1.00
2019-01-23T09:16:39.759Z,-1.00
2019-01-23T09:19:33.404Z,-1.00
2019-01-23T09:21:57.335Z,-0.90
2019-01-23T09:24:33.597Z,-0.90
2019-01-23T09:27:14.581Z,-0.80
2019-01-23T09:29:44.103Z,-0.80
2019-01-23T09:33:08.393Z,-0.70
2019-01-23T09:36:35.426Z,-0.70
2019-01-23T09:39:44.270Z,-0.70
2019-01-23T09:42:55.505Z,-0.60
2019-01-23T09:46:05.916Z,-0.50
2019-01-23T09:49:17.545Z,-0.40
2019-01-23T09:52:47.980Z,-0.30
2019-01-23T09:55:18.796Z,-0.20
2019-01-23T09:57:53.933Z,-0.10
2019-01-23T10:00:27.854Z,0.00
2019-01-23T10:02:59.692Z,0.10
2019-01-23T10:05:30.500Z,0.10
2019-01-23T10:08:01.135Z,0.10
2019-01-23T10:10:32.717Z,0.10
2019-01-23T10:13:03.880Z,0.10
2019-01-23T10:15:44.137Z,0.10
2019-01-23T10:18:15.210Z,0.20
2019-01-23T10:20:46.270Z,0.10
2019-01-23T10:23:17.005Z,0.10
2019-01-23T10:25:47.882Z,0.10
2019-01-23T10:28:19.077Z,0.10
2019-01-23T10:30:50.128Z,0.10
2019-01-23T10:33:20.820Z,0.20
2019-01-23T10:35:51.675Z,0.20
2019-01-23T10:38:22.733Z,0.20
2019-01-23T10:40:53.630Z,0.20
2019-01-23T10:43:24.928Z,0.30
2019-01-23T10:45:56.043Z,0.30
2019-01-23T10:48:26.997Z,0.30
2019-01-23T10:50:59.076Z,0.30
2019-01-23T10:53:30.278Z,0.30
2019-01-23T10:56:01.290Z,0.40
2019-01-23T10:58:32.413Z,0.40
2019-01-23T11:01:14.893Z,0.40
2019-01-23T11:03:46.070Z,0.30
2019-01-23T11:06:17.217Z,0.30
2019-01-23T11:08:47.907Z,0.30
2019-01-23T11:11:19.023Z,0.30
2019-01-23T11:13:49.629Z,0.30
2019-01-23T11:16:20.717Z,0.40
2019-01-23T11:18:51.562Z,0.40
2019-01-23T11:21:22.220Z,0.40
2019-01-23T11:23:53.471Z,0.40
2019-01-23T11:26:24.457Z,0.40
2019-01-23T11:28:55.208Z,0.40
2019-01-23T11:31:25.777Z,0.50
2019-01-23T11:33:56.848Z,0.50
2019-01-23T11:36:27.887Z,0.50
2019-01-23T11:38:58.799Z,0.50
2019-01-23T11:41:29.885Z,0.60
2019-01-23T11:44:00.584Z,0.60
2019-01-23T11:46:31.462Z,0.60
2019-01-23T11:49:02.359Z,0.60
2019-01-23T11:51:33.643Z,0.60
2019-01-23T11:54:07.821Z,0.70
2019-01-23T11:56:38.713Z,0.70
2019-01-23T11:59:09.717Z,0.70
2019-01-23T12:01:40.440Z,0.70
2019-01-23T12:04:11.393Z,0.70
2019-01-23T12:06:42.340Z,0.70
2019-01-23T12:09:13.661Z,0.70
2019-01-23T12:11:44.614Z,0.70
2019-01-23T12:14:15.578Z,0.70
2019-01-23T12:16:46.790Z,0.70
2019-01-23T12:19:17.744Z,0.60
2019-01-23T12:21:48.568Z,0.60
2019-01-23T12:24:19.486Z,0.60
2019-01-23T12:26:50.002Z,0.60
2019-01-23T12:29:21.117Z,0.50
2019-01-23T12:31:52.033Z,0.40
2019-01-23T12:34:22.525Z,0.40
2019-01-23T12:36:53.584Z,0.40
2019-01-23T12:39:24.672Z,0.40
2019-01-23T12:41:55.335Z,0.40
2019-01-23T12:44:26.344Z,0.40
2019-01-23T12:46:57.502Z,0.30
2019-01-23T12:49:28.647Z,0.30
2019-01-23T12:51:59.766Z,0.30
2019-01-23T12:54:30.497Z,0.30
2019-01-23T12:57:01.417Z,0.30
2019-01-23T12:59:32.394Z,0.30
2019-01-23T13:02:09.580Z,0.30
2019-01-23T13:04:35.913Z,0.30
2019-01-23T13:07:06.565Z,0.30
2019-01-23T13:09:37.353Z,0.30
2019-01-23T13:12:08.032Z,0.30
2019-01-23T13:14:38.837Z,0.30
2019-01-23T13:17:09.568Z,0.30
2019-01-23T13:19:40.496Z,0.20
2019-01-23T13:22:11.425Z,0.20
2019-01-23T13:24:42.791Z,0.20
2019-01-23T13:27:13.469Z,0.20
2019-01-23T13:29:44.810Z,0.30
2019-01-23T13:32:15.513Z,0.30
2019-01-23T13:34:46.557Z,0.20
2019-01-23T13:37:17.578Z,0.20
2019-01-23T13:39:48.366Z,0.20
2019-01-23T13:42:19.658Z,0.20
2019-01-23T13:44:50.437Z,0.20
2019-01-23T13:47:21.366Z,0.20
2019-01-23T13:49:52.673Z,0.30
2019-01-23T13:52:23.839Z,0.20
2019-01-23T13:54:55.072Z,0.20
2019-01-23T13:57:25.714Z,0.20
2019-01-23T13:59:56.583Z,0.20
2019-01-23T14:02:27.565Z,0.20
2019-01-23T14:04:58.626Z,0.20
2019-01-23T14:07:29.770Z,0.20
2019-01-23T14:10:00.702Z,0.20
2019-01-23T14:12:31.801Z,0.20
2019-01-23T14:15:03.060Z,0.10
2019-01-23T14:17:33.812Z,0.10
2019-01-23T14:20:05.838Z,0.10
2019-01-23T14:22:37.145Z,0.10
2019-01-23T14:25:08.432Z,0.10
2019-01-23T14:27:39.097Z,0.10
2019-01-23T14:30:18.381Z,0.10
2019-01-23T14:32:48.962Z,0.00
2019-01-23T14:35:19.713Z,0.00
2019-01-23T14:37:50.686Z,0.00
2019-01-23T14:40:21.412Z,0.00
2019-01-23T14:42:52.216Z,-0.10
2019-01-23T14:45:23.150Z,-0.10
2019-01-23T14:47:55.458Z,-0.10
2019-01-23T14:50:26.174Z,-0.10
2019-01-23T14:52:57.441Z,-0.10
2019-01-23T14:55:28.310Z,-0.10
2019-01-23T14:57:59.435Z,-0.10
2019-01-23T15:00:30.702Z,-0.20
2019-01-23T15:03:01.600Z,-0.20
2019-01-23T15:05:32.484Z,-0.20
2019-01-23T15:08:02.959Z,-0.20
2019-01-23T15:10:34.288Z,-0.20
2019-01-23T15:13:05.604Z,-0.20
2019-01-23T15:15:36.444Z,-0.20
2019-01-23T15:18:07.347Z,-0.20
2019-01-23T15:20:40.315Z,-0.20
2019-01-23T15:23:12.454Z,-0.20
2019-01-23T15:25:43.156Z,-0.30
2019-01-23T15:28:14.434Z,-0.30
2019-01-23T15:30:45.521Z,-0.30
2019-01-23T15:33:16.468Z,-0.30
2019-01-23T15:35:47.196Z,-0.30
2019-01-23T15:38:18.394Z,-0.30
2019-01-23T15:40:49.276Z,-0.30
2019-01-23T15:43:19.895Z,-0.30
2019-01-23T15:45:50.726Z,-0.30
2019-01-23T15:48:22.101Z,-0.30
2019-01-23T15:50:52.693Z,-0.30
2019-01-23T15:53:23.984Z,-0.30
2019-01-23T15:55:54.929Z,-0.30
2019-01-23T15:58:25.960Z,-0.30
2019-01-23T16:00:56.825Z,-0.30
2019-01-23T16:03:27.789Z,-0.30
2019-01-23T16:05:58.777Z,-0.30
2019-01-23T16:08:29.667Z,-0.30
2019-01-23T16:11:00.485Z,-0.30
2019-01-23T16:13:31.216Z,-0.30
2019-01-23T16:16:02.000Z,-0.30
2019-01-23T16:18:33.118Z,-0.40
2019-01-23T16:21:04.692Z,-0.40
2019-01-23T16:23:35.937Z,-0.40
2019-01-23T16:26:06.906Z,-0.40
2019-01-23T16:28:38.191Z,-0.40
2019-01-23T16:31:09.109Z,-0.40
2019-01-23T16:33:39.945Z,-0.40
2019-01-23T16:36:10.764Z,-0.40
2019-01-23T16:38:41.522Z,-0.40
2019-01-23T16:41:12.241Z,-0.40
2019-01-23T16:43:43.181Z,-0.40
2019-01-23T16:46:25.116Z,-0.40
2019-01-23T16:48:56.239Z,-0.40
2019-01-23T16:51:27.009Z,-0.40
2019-01-23T16:53:57.800Z,-0.40
2019-01-23T16:56:29.768Z,-0.40
2019-01-23T16:59:00.822Z,-0.50
2019-01-23T17:01:31.745Z,-0.50
2019-01-23T17:04:03.181Z,-0.50
2019-01-23T17:06:34.729Z,-0.50
2019-01-23T17:09:08.611Z,-0.50
2019-01-23T17:11:40.050Z,-0.50
2019-01-23T17:14:10.653Z,-0.50
2019-01-23T17:16:41.393Z,-0.50
2019-01-23T17:19:13.352Z,-0.50
2019-01-23T17:21:44.433Z,-0.50
2019-01-23T17:24:15.230Z,-0.50
2019-01-23T17:26:46.628Z,-0.60
2019-01-23T17:29:17.440Z,-0.60
2019-01-23T17:31:49.058Z,-0.60
2019-01-23T17:34:19.929Z,-0.50
2019-01-23T17:36:50.853Z,-0.60
2019-01-23T17:39:22.072Z,-0.60
2019-01-23T17:41:53.529Z,-0.60
2019-01-23T17:44:24.550Z,-0.60
2019-01-23T17:46:56.012Z,-0.60
2019-01-23T17:49:26.864Z,-0.60
2019-01-23T17:51:58.025Z,-0.60
2019-01-23T17:54:29.355Z,-0.60
2019-01-23T17:57:00.347Z,-0.60
2019-01-23T17:59:31.579Z,-0.60
2019-01-23T18:02:03.119Z,-0.70
2019-01-23T18:04:36.657Z,-0.70
2019-01-23T18:07:08.009Z,-0.70
2019-01-23T18:09:38.975Z,-0.70
2019-01-23T18:12:09.985Z,-0.70
2019-01-23T18:14:49.031Z,-0.70
2019-01-23T18:17:18.027Z,-0.70
2019-01-23T18:19:49.353Z,-0.70
2019-01-23T18:22:20.253Z,-0.70
2019-01-23T18:24:52.657Z,-0.70
2019-01-23T18:27:23.770Z,-0.70
2019-01-23T18:29:54.476Z,-0.70
2019-01-23T18:32:25.292Z,-0.70
2019-01-23T18:35:05.273Z,-0.70
2019-01-23T18:38:44.580Z,-0.80
2019-01-23T18:42:10.073Z,-0.80
2019-01-23T18:44:55.463Z,-0.80
2019-01-23T18:47:55.753Z,-0.80
2019-01-23T18:50:48.135Z,-0.90
2019-01-23T18:53:22.681Z,-0.90
2019-01-23T18:55:57.329Z,-0.90
2019-01-23T18:58:28.599Z,-0.90
2019-01-23T19:00:59.425Z,-0.90
2019-01-23T19:03:30.727Z,-0.90
2019-01-23T19:06:02.175Z,-0.90
2019-01-23T19:08:35.656Z,-0.90
2019-01-23T19:11:07.007Z,-0.90
2019-01-23T19:13:37.868Z,-0.90
2019-01-23T19:16:11.817Z,-0.90
2019-01-23T19:18:48.128Z,-0.90
2019-01-23T19:21:23.234Z,-1.00
2019-01-23T19:23:54.238Z,-0.90
2019-01-23T19:26:25.364Z,-1.00
2019-01-23T19:28:56.909Z,-1.00
2019-01-23T19:31:30.889Z,-1.00
2019-01-23T19:34:06.989Z,-1.00
2019-01-23T19:36:38.081Z,-1.00
2019-01-23T19:39:11.676Z,-1.00
2019-01-23T19:41:43.204Z,-1.00
2019-01-23T19:44:14.383Z,-1.00
2019-01-23T19:46:45.833Z,-1.00
2019-01-23T19:49:16.822Z,-1.00
2019-01-23T19:51:48.307Z,-1.00
2019-01-23T19:54:22.864Z,-1.00
2019-01-23T19:56:56.931Z,-1.00
2019-01-23T19:59:28.579Z,-1.00
2019-01-23T20:02:03.037Z,-1.00
2019-01-23T20:04:34.256Z,-1.00
2019-01-23T20:07:10.248Z,-1.00
2019-01-23T20:09:41.400Z,-1.00
2019-01-23T20:12:15.617Z,-1.00
2019-01-23T20:14:45.501Z,-1.00
2019-01-23T20:17:17.738Z,-1.00
2019-01-23T20:19:51.929Z,-1.00
2019-01-23T20:22:24.712Z,-1.00
2019-01-23T20:24:58.303Z,-1.00
2019-01-23T20:27:31.308Z,-1.00
2019-01-23T20:30:02.373Z,-1.00
2019-01-23T20:32:38.345Z,-1.00
2019-01-23T20:35:11.475Z,-1.00
2019-01-23T20:37:44.088Z,-1.00
2019-01-23T20:40:16.522Z,-1.00
2019-01-23T20:42:50.544Z,-1.00
2019-01-23T20:45:23.372Z,-1.00
2019-01-23T20:47:55.383Z,-1.00
2019-01-23T20:50:28.573Z,-1.00
2019-01-23T20:52:59.923Z,-1.10
2019-01-23T20:55:31.065Z,-1.10
2019-01-23T20:58:02.041Z,-1.00
2019-01-23T21:00:36.355Z,-1.00
2019-01-23T21:03:09.149Z,-1.00
2019-01-23T21:05:43.077Z,-1.00
2019-01-23T21:08:15.931Z,-1.00
2019-01-23T21:10:48.717Z,-1.00
2019-01-23T21:13:20.289Z,-1.00
2019-01-23T21:15:51.375Z,-1.00
2019-01-23T21:18:22.662Z,-1.00
2019-01-23T21:20:55.971Z,-1.10
2019-01-23T21:23:27.282Z,-1.10
2019-01-23T21:26:03.812Z,-1.10
2019-01-23T21:28:35.576Z,-1.00
2019-01-23T21:31:06.805Z,-1.00
2019-01-23T21:33:42.249Z,-1.00
2019-01-23T21:36:13.778Z,-1.00
2019-01-23T21:38:44.932Z,-1.00
2019-01-23T21:41:18.883Z,-1.00
2019-01-23T21:44:12.078Z,-1.00
2019-01-23T21:46:44.345Z,-1.00
2019-01-23T21:49:15.315Z,-1.00
2019-01-23T21:51:46.848Z,-1.00
2019-01-23T21:54:18.410Z,-1.00
2019-01-23T21:56:51.305Z,-1.00
2019-01-23T21:59:28.727Z,-1.00
2019-01-23T22:01:59.569Z,-1.00
2019-01-23T22:04:33.421Z,-1.00
2019-01-23T22:07:04.560Z,-1.10
2019-01-23T22:09:36.790Z,-1.10
2019-01-23T22:12:10.438Z,-1.10
2019-01-23T22:14:44.238Z,-1.10
2019-01-23T22:17:15.865Z,-1.10
2019-01-23T22:19:50.047Z,-1.10
2019-01-23T22:22:30.543Z,-1.10
2019-01-23T22:25:01.485Z,-1.10
2019-01-23T22:27:32.982Z,-1.20
2019-01-23T22:30:06.001Z,-1.10
2019-01-23T22:32:37.774Z,-1.10
2019-01-23T22:35:09.350Z,-1.10
2019-01-23T22:37:41.533Z,-1.10
2019-01-23T22:40:15.552Z,-1.20
2019-01-23T22:42:53.018Z,-1.10
2019-01-23T22:45:24.252Z,-1.20
2019-01-23T22:47:55.070Z,-1.20
2019-01-23T22:50:30.955Z,-1.20
2019-01-23T22:53:02.879Z,-1.20
2019-01-23T22:55:37.602Z,-1.20
2019-01-23T22:58:08.743Z,-1.20
2019-01-23T23:00:50.873Z,-1.20
2019-01-23T23:03:22.849Z,-1.20
2019-01-23T23:05:53.990Z,-1.20
2019-01-23T23:08:24.910Z,-1.20
2019-01-23T23:10:56.563Z,-1.20
2019-01-23T23:13:28.103Z,-1.20
2019-01-23T23:16:04.035Z,-1.30
2019-01-23T23:18:34.997Z,-1.30
2019-01-23T23:21:06.707Z,-1.30
2019-01-23T23:23:38.550Z,-1.30
2019-01-23T23:26:12.519Z,-1.30
2019-01-23T23:28:46.300Z,-1.30
2019-01-23T23:31:19.850Z,-1.40
2019-01-23T23:33:51.115Z,-1.40
2019-01-23T23:36:22.268Z,-1.40
2019-01-23T23:38:53.291Z,-1.40
2019-01-23T23:41:24.253Z,-1.50
2019-01-23T23:43:55.565Z,-1.50
2019-01-23T23:46:26.881Z,-1.50
2019-01-23T23:48:57.715Z,-1.50
2019-01-23T23:51:28.569Z,-1.60
2019-01-23T23:53:59.583Z,-1.60
2019-01-23T23:56:30.576Z,-1.60
2019-01-23T23:59:02.332Z,-1.60
